Time;durP1;ratioP1;P1;durP2;ratioP2;P2;SDS_P1;SDS_P2;PMS_P1;PMS_P2;Temp;Humidity;BMP_temperature;BMP_pressure;BME280_temperature;BME280_humidity;BME280_pressure;Samples;Min_cycle;Max_cycle;Signal;HPM_P1;HPM_P2
2021/08/01 00:01:08;;;;;;;5.17;3.60;;;16.80;99.90;;;;;;5033544;28;20675;-75
2021/08/01 00:03:34;;;;;;;7.70;4.10;;;16.80;99.90;;;;;;5032894;28;20261;-75
2021/08/01 00:06:00;;;;;;;6.30;4.00;;;16.70;99.90;;;;;;5032692;28;20611;-75
2021/08/01 00:08:25;;;;;;;5.57;4.30;;;16.80;99.90;;;;;;5034284;28;20182;-75
2021/08/01 00:10:56;;;;;;;5.63;3.97;;;16.80;99.90;;;;;;5035024;28;20287;-75
2021/08/01 00:13:21;;;;;;;5.90;4.50;;;16.80;99.90;;;;;;5033294;28;20202;-75
2021/08/01 00:15:47;;;;;;;6.43;4.20;;;16.80;99.90;;;;;;5033455;28;20173;-75
2021/08/01 00:18:13;;;;;;;4.93;3.70;;;16.70;99.90;;;;;;5033259;28;20240;-75
2021/08/01 00:20:40;;;;;;;4.60;3.90;;;16.70;99.90;;;;;;5033267;28;20720;-75
2021/08/01 00:23:06;;;;;;;4.93;3.90;;;16.70;99.90;;;;;;5033158;28;20185;-75
2021/08/01 00:25:31;;;;;;;5.27;4.13;;;16.60;99.90;;;;;;5033160;28;20173;-75
2021/08/01 00:27:57;;;;;;;5.87;4.10;;;16.60;99.90;;;;;;5033251;28;20185;-75
2021/08/01 00:30:24;;;;;;;3.73;3.37;;;16.60;99.90;;;;;;5033092;28;20214;-75
2021/08/01 00:32:49;;;;;;;3.87;3.33;;;16.60;99.90;;;;;;5074627;22;20297;-73
2021/08/01 00:35:15;;;;;;;5.63;4.00;;;16.60;99.90;;;;;;5052966;28;20234;-73
2021/08/01 00:37:40;;;;;;;6.47;3.73;;;16.50;99.90;;;;;;5052909;28;20181;-70
2021/08/01 00:40:07;;;;;;;6.00;3.87;;;16.50;99.90;;;;;;5035183;28;20219;-70
2021/08/01 00:42:33;;;;;;;4.67;3.80;;;16.60;99.90;;;;;;5040082;28;20190;-70
2021/08/01 00:44:58;;;;;;;4.53;4.10;;;16.50;99.90;;;;;;5015315;28;20179;-70
2021/08/01 00:47:24;;;;;;;6.00;3.70;;;16.40;99.90;;;;;;5032929;28;20301;-70
2021/08/01 00:49:50;;;;;;;4.47;4.07;;;16.40;99.90;;;;;;5033080;28;20268;-70
2021/08/01 00:52:16;;;;;;;10.27;4.40;;;16.40;99.90;;;;;;5032623;28;20209;-70
2021/08/01 00:54:42;;;;;;;4.77;3.90;;;16.50;99.90;;;;;;5032755;28;20227;-70
2021/08/01 00:57:07;;;;;;;5.70;3.77;;;16.60;99.90;;;;;;5015191;28;20264;-70
2021/08/01 00:59:35;;;;;;;6.30;4.23;;;16.50;99.90;;;;;;5031989;28;20203;-70
2021/08/01 01:02:06;;;;;;;7.10;4.80;;;16.40;99.90;;;;;;5032482;28;20222;-70
2021/08/01 01:04:51;;;;;;;5.53;4.13;;;16.30;99.90;;;;;;5014972;28;20177;-70
2021/08/01 01:07:34;;;;;;;5.87;4.13;;;16.20;99.90;;;;;;5013662;28;20250;-70
2021/08/01 01:10:14;;;;;;;5.97;4.70;;;16.30;99.90;;;;;;5031845;28;20176;-70
2021/08/01 01:12:53;;;;;;;5.50;4.83;;;16.40;99.90;;;;;;5032523;28;20209;-70
2021/08/01 01:15:25;;;;;;;10.70;4.47;;;16.40;99.90;;;;;;5035541;28;20166;-71
2021/08/01 01:17:53;;;;;;;5.50;4.53;;;16.40;99.90;;;;;;5015389;28;20189;-70
2021/08/01 01:20:38;;;;;;;6.07;5.17;;;16.20;99.90;;;;;;5032980;28;20637;-70
2021/08/01 01:23:38;;;;;;;7.33;4.90;;;16.10;99.90;;;;;;5033057;28;20203;-71
2021/08/01 01:26:05;;;;;;;6.67;5.20;;;16.20;99.90;;;;;;5033491;28;20188;-71
2021/08/01 01:28:42;;;;;;;5.10;4.60;;;16.20;99.90;;;;;;5033471;28;20186;-71
2021/08/01 01:31:33;;;;;;;8.70;5.17;;;16.10;99.90;;;;;;5025880;28;20176;-71
2021/08/01 01:34:20;;;;;;;4.73;4.30;;;16.20;99.90;;;;;;5003744;28;20229;-71
2021/08/01 01:36:47;;;;;;;5.33;4.83;;;16.20;99.90;;;;;;5029529;28;20186;-72
2021/08/01 01:39:14;;;;;;;6.00;5.50;;;16.30;99.90;;;;;;5015467;28;20211;-71
2021/08/01 01:41:43;;;;;;;5.03;4.53;;;16.40;99.90;;;;;;5030313;28;20197;-71
2021/08/01 01:44:10;;;;;;;8.20;4.97;;;16.30;99.90;;;;;;5030463;28;20232;-71
2021/08/01 01:46:36;;;;;;;6.60;4.40;;;16.20;99.90;;;;;;5016927;28;20197;-72
2021/08/01 01:49:04;;;;;;;4.83;4.23;;;16.30;99.90;;;;;;5018467;28;20184;-71
2021/08/01 01:51:32;;;;;;;4.70;4.10;;;16.30;99.90;;;;;;5013764;28;20331;-71
2021/08/01 01:53:58;;;;;;;12.23;4.50;;;16.20;99.90;;;;;;5018297;28;20247;-71
2021/08/01 01:56:25;;;;;;;4.30;3.70;;;16.30;99.90;;;;;;5036108;28;20273;-71
2021/08/01 01:58:52;;;;;;;5.93;3.47;;;16.30;99.90;;;;;;5036019;28;20169;-73
2021/08/01 02:01:18;;;;;;;4.97;3.20;;;16.40;99.90;;;;;;5024884;28;20218;-71
2021/08/01 02:03:44;;;;;;;3.50;3.20;;;16.30;99.90;;;;;;5035873;28;20231;-71
2021/08/01 02:06:12;;;;;;;3.70;3.40;;;16.30;99.90;;;;;;5018112;28;20184;-71
2021/08/01 02:08:45;;;;;;;4.70;3.40;;;16.20;99.90;;;;;;5035876;28;20187;-71
2021/08/01 02:11:12;;;;;;;3.87;3.33;;;16.10;99.90;;;;;;5035780;28;20177;-71
2021/08/01 02:13:48;;;;;;;4.10;3.20;;;16.20;99.90;;;;;;5018088;28;20678;-71
2021/08/01 02:16:14;;;;;;;4.63;2.97;;;16.20;99.90;;;;;;5035763;28;20262;-71
2021/08/01 02:18:52;;;;;;;5.43;3.67;;;16.10;99.90;;;;;;5035787;28;20610;-70
2021/08/01 02:21:20;;;;;;;4.87;3.70;;;15.90;99.90;;;;;;5035674;28;20178;-71
2021/08/01 02:23:47;;;;;;;6.50;3.20;;;15.80;99.90;;;;;;5035673;28;20181;-71
2021/08/01 02:26:17;;;;;;;3.67;3.20;;;15.70;99.90;;;;;;5035516;28;20657;-70
2021/08/01 02:28:43;;;;;;;6.87;3.63;;;15.60;99.90;;;;;;5035899;28;20266;-71
2021/08/01 02:31:10;;;;;;;4.10;3.17;;;15.60;99.90;;;;;;5035607;28;20179;-71
2021/08/01 02:33:37;;;;;;;3.57;3.27;;;15.70;99.90;;;;;;5017797;28;20198;-71
2021/08/01 02:36:06;;;;;;;2.97;2.53;;;15.80;99.90;;;;;;5035422;28;20173;-71
2021/08/01 02:38:33;;;;;;;4.73;2.80;;;15.90;99.90;;;;;;5017770;28;20171;-71
2021/08/01 02:41:04;;;;;;;3.67;2.70;;;15.70;99.90;;;;;;5017497;28;20178;-71
2021/08/01 02:43:31;;;;;;;3.17;2.73;;;15.70;99.90;;;;;;5035272;28;20169;-71
2021/08/01 02:45:58;;;;;;;6.50;2.70;;;15.70;99.90;;;;;;5035154;28;20251;-70
2021/08/01 02:48:25;;;;;;;3.67;2.77;;;15.70;99.90;;;;;;5035094;28;20206;-71
2021/08/01 02:51:01;;;;;;;4.70;3.07;;;15.70;99.90;;;;;;5035224;28;20254;-71
2021/08/01 02:53:30;;;;;;;4.07;2.90;;;15.70;99.90;;;;;;5034925;28;20745;-71
2021/08/01 02:55:59;;;;;;;4.73;2.83;;;15.80;99.90;;;;;;5034993;28;20259;-70
2021/08/01 02:58:28;;;;;;;8.13;3.23;;;15.70;99.90;;;;;;5034850;28;20269;-71
2021/08/01 03:00:55;;;;;;;4.10;3.50;;;15.60;99.90;;;;;;5035037;28;20186;-70
2021/08/01 03:03:22;;;;;;;3.93;2.80;;;15.50;99.90;;;;;;5034804;28;20198;-71
2021/08/01 03:05:48;;;;;;;5.07;2.97;;;15.40;99.90;;;;;;5017146;28;20170;-71
2021/08/01 03:08:14;;;;;;;4.03;3.00;;;15.40;99.90;;;;;;5017142;28;20178;-71
2021/08/01 03:10:44;;;;;;;4.77;3.27;;;15.40;99.90;;;;;;5034923;28;20172;-71
2021/08/01 03:13:10;;;;;;;4.33;2.97;;;15.60;99.90;;;;;;5034693;28;20194;-71
2021/08/01 03:15:36;;;;;;;6.43;3.33;;;15.40;99.90;;;;;;5027091;28;20761;-71
2021/08/01 03:18:02;;;;;;;4.70;3.30;;;15.30;99.90;;;;;;5034609;28;20198;-71
2021/08/01 03:20:27;;;;;;;4.50;3.10;;;15.50;99.90;;;;;;5034470;28;20643;-71
2021/08/01 03:22:53;;;;;;;3.83;3.53;;;15.50;99.90;;;;;;5034347;28;20709;-70
2021/08/01 03:25:19;;;;;;;4.93;3.43;;;15.50;99.90;;;;;;5034463;28;20246;-71
2021/08/01 03:27:44;;;;;;;6.27;3.43;;;15.50;99.90;;;;;;5034342;28;20179;-71
2021/08/01 03:30:10;;;;;;;5.90;3.50;;;15.60;99.90;;;;;;5034514;28;20623;-71
2021/08/01 03:32:36;;;;;;;3.87;3.00;;;15.70;99.90;;;;;;5034109;28;20220;-71
2021/08/01 03:35:02;;;;;;;3.63;3.30;;;15.70;99.90;;;;;;5034320;28;20183;-71
2021/08/01 03:37:28;;;;;;;3.80;3.17;;;15.70;99.90;;;;;;5009905;28;20595;-71
2021/08/01 03:39:54;;;;;;;4.40;3.90;;;15.70;99.90;;;;;;5032513;28;20546;-72
2021/08/01 03:42:20;;;;;;;3.87;3.57;;;15.70;99.90;;;;;;5010707;28;20240;-71
2021/08/01 03:44:45;;;;;;;3.60;3.30;;;15.70;99.90;;;;;;5016270;28;20176;-71
2021/08/01 03:47:11;;;;;;;4.03;3.33;;;15.80;99.90;;;;;;5005332;28;20179;-70
2021/08/01 03:49:37;;;;;;;3.90;3.60;;;15.70;99.90;;;;;;5032635;28;20206;-70
2021/08/01 03:52:03;;;;;;;4.40;3.50;;;15.60;99.90;;;;;;5033828;28;20194;-71
2021/08/01 03:54:28;;;;;;;4.83;3.40;;;15.60;99.90;;;;;;5034160;28;20166;-71
2021/08/01 03:56:54;;;;;;;3.17;2.97;;;15.70;99.90;;;;;;5036207;28;20218;-71
2021/08/01 03:59:20;;;;;;;4.07;3.67;;;15.70;99.90;;;;;;5030299;28;20181;-71
2021/08/01 04:01:45;;;;;;;3.43;3.13;;;15.70;99.90;;;;;;5026912;28;20206;-71
2021/08/01 04:04:11;;;;;;;3.57;3.27;;;15.70;99.90;;;;;;5009471;28;20210;-71
2021/08/01 04:06:37;;;;;;;4.47;3.27;;;15.70;99.90;;;;;;5033252;28;20170;-71
2021/08/01 04:09:06;;;;;;;3.37;3.17;;;15.80;99.90;;;;;;5031313;28;20174;-71
2021/08/01 04:11:33;;;;;;;3.20;2.90;;;15.80;99.90;;;;;;5023465;28;20198;-72
2021/08/01 04:13:59;;;;;;;4.53;3.50;;;15.80;99.90;;;;;;5034139;28;20260;-71
2021/08/01 04:16:25;;;;;;;4.60;3.37;;;15.80;99.90;;;;;;5033452;28;20174;-72
2021/08/01 04:18:51;;;;;;;4.00;3.70;;;15.80;99.90;;;;;;5033800;28;20185;-71
2021/08/01 04:21:16;;;;;;;4.33;3.20;;;15.80;99.90;;;;;;5031105;28;20186;-71
2021/08/01 04:23:43;;;;;;;4.03;3.13;;;15.80;99.90;;;;;;5014426;28;20244;-71
2021/08/01 04:26:09;;;;;;;3.73;3.43;;;15.70;99.90;;;;;;5033323;28;20178;-71
2021/08/01 04:28:35;;;;;;;4.27;3.30;;;15.70;99.90;;;;;;5032163;28;20252;-71
2021/08/01 04:31:02;;;;;;;5.63;3.20;;;15.70;99.90;;;;;;5031843;28;20589;-72
2021/08/01 04:33:27;;;;;;;4.57;3.80;;;15.60;99.90;;;;;;5030978;28;20650;-71
2021/08/01 04:35:53;;;;;;;4.10;3.70;;;15.70;99.90;;;;;;5032095;28;20262;-72
2021/08/01 04:38:19;;;;;;;6.27;3.70;;;15.70;99.90;;;;;;5031861;28;20179;-71
2021/08/01 04:40:45;;;;;;;4.20;3.63;;;15.70;99.90;;;;;;5030838;28;20586;-71
2021/08/01 04:43:11;;;;;;;4.20;3.80;;;15.70;99.90;;;;;;5030196;28;20207;-71
2021/08/01 04:45:36;;;;;;;6.03;3.97;;;15.70;99.90;;;;;;5032081;28;20184;-72
2021/08/01 04:48:02;;;;;;;4.00;3.70;;;15.80;99.90;;;;;;5028590;28;20257;-71
2021/08/01 04:50:28;;;;;;;3.70;3.40;;;15.80;99.90;;;;;;5029004;28;20174;-73
2021/08/01 04:52:53;;;;;;;3.97;3.63;;;15.80;99.90;;;;;;5030315;28;20201;-72
2021/08/01 04:55:20;;;;;;;3.37;3.13;;;15.80;99.90;;;;;;5031325;28;20178;-72
2021/08/01 04:57:46;;;;;;;5.83;3.83;;;15.80;99.90;;;;;;5030909;28;20259;-73
2021/08/01 05:00:13;;;;;;;4.77;4.10;;;15.80;99.90;;;;;;5030617;28;20307;-72
2021/08/01 05:02:39;;;;;;;3.93;3.60;;;15.80;99.90;;;;;;5030453;28;20201;-72
2021/08/01 05:05:05;;;;;;;5.80;3.40;;;15.80;99.90;;;;;;5030354;28;20201;-71
2021/08/01 05:07:31;;;;;;;5.80;3.27;;;15.60;99.90;;;;;;5029231;28;20262;-72
2021/08/01 05:09:58;;;;;;;5.57;3.77;;;15.40;99.90;;;;;;5029489;28;20202;-73
2021/08/01 05:12:23;;;;;;;6.63;3.80;;;15.30;99.90;;;;;;5030777;28;20190;-73
2021/08/01 05:14:49;;;;;;;6.57;3.67;;;15.30;99.90;;;;;;5034472;28;20182;-72
2021/08/01 05:17:15;;;;;;;6.13;3.90;;;15.40;99.90;;;;;;5031570;28;20553;-73
2021/08/01 05:19:41;;;;;;;3.97;3.60;;;15.50;99.90;;;;;;5032896;28;20213;-73
2021/08/01 05:22:08;;;;;;;3.80;3.43;;;15.50;99.90;;;;;;5036143;28;20220;-73
2021/08/01 05:24:42;;;;;;;3.80;3.50;;;15.40;99.90;;;;;;5035511;28;20180;-73
2021/08/01 05:27:08;;;;;;;3.83;3.50;;;15.40;99.90;;;;;;5035655;28;20226;-72
2021/08/01 05:29:34;;;;;;;7.20;4.30;;;15.40;99.90;;;;;;5035634;28;20186;-72
2021/08/01 05:32:00;;;;;;;6.53;4.47;;;15.50;99.90;;;;;;5036398;28;20210;-73
2021/08/01 05:34:26;;;;;;;4.10;3.70;;;15.60;99.90;;;;;;5036680;28;20205;-72
2021/08/01 05:36:52;;;;;;;5.23;4.40;;;15.70;99.90;;;;;;5018752;28;20175;-72
2021/08/01 05:39:17;;;;;;;4.53;4.13;;;15.80;99.90;;;;;;5036599;28;20592;-72
2021/08/01 05:41:43;;;;;;;5.47;4.27;;;15.80;99.90;;;;;;5018575;28;20236;-72
2021/08/01 05:44:09;;;;;;;3.73;3.40;;;15.80;99.90;;;;;;5018559;28;20254;-72
2021/08/01 05:46:34;;;;;;;4.40;4.00;;;15.80;99.90;;;;;;5036397;28;20190;-72
2021/08/01 05:49:00;;;;;;;4.40;4.00;;;15.90;99.90;;;;;;5036232;28;20172;-72
2021/08/01 05:51:26;;;;;;;4.17;3.80;;;15.90;99.90;;;;;;5036086;28;20209;-72
2021/08/01 05:53:51;;;;;;;4.30;3.90;;;15.90;99.90;;;;;;5036141;28;20179;-72
2021/08/01 05:56:18;;;;;;;3.90;3.60;;;15.90;99.90;;;;;;5036426;28;20188;-72
2021/08/01 05:58:43;;;;;;;4.37;3.80;;;15.90;99.90;;;;;;5035985;28;20226;-72
2021/08/01 06:01:09;;;;;;;4.37;3.70;;;16.00;99.90;;;;;;5036049;28;20207;-72
2021/08/01 06:03:35;;;;;;;5.47;3.77;;;16.00;99.90;;;;;;5036222;28;20210;-71
2021/08/01 06:06:19;;;;;;;4.13;3.60;;;15.90;99.90;;;;;;5036416;28;20257;-72
2021/08/01 06:08:46;;;;;;;3.93;3.63;;;15.90;99.90;;;;;;5041943;28;20213;-72
2021/08/01 06:11:13;;;;;;;7.30;3.93;;;15.90;99.90;;;;;;5035841;28;20178;-73
2021/08/01 06:13:39;;;;;;;4.20;3.80;;;15.90;99.90;;;;;;5036149;28;20176;-72
2021/08/01 06:16:09;;;;;;;4.00;3.70;;;15.90;99.90;;;;;;5036230;28;20732;-71
2021/08/01 06:18:36;;;;;;;5.27;4.77;;;15.90;99.90;;;;;;5035989;28;20694;-72
2021/08/01 06:21:07;;;;;;;5.07;4.03;;;15.90;99.90;;;;;;5029420;28;20273;-72
2021/08/01 06:23:34;;;;;;;5.80;3.97;;;15.80;99.90;;;;;;5028431;28;20591;-72
2021/08/01 06:25:59;;;;;;;4.50;4.10;;;15.70;99.90;;;;;;5034985;28;20654;-73
2021/08/01 06:28:25;;;;;;;4.90;4.40;;;15.70;99.90;;;;;;5015510;28;20191;-73
2021/08/01 06:30:51;;;;;;;6.37;3.90;;;15.60;99.90;;;;;;5033073;28;20188;-73
2021/08/01 06:33:17;;;;;;;6.30;4.27;;;15.80;99.90;;;;;;5030303;28;20758;-73
2021/08/01 06:35:42;;;;;;;5.03;4.63;;;15.80;99.90;;;;;;5034274;28;20187;-73
2021/08/01 06:38:08;;;;;;;4.93;4.43;;;15.90;99.90;;;;;;5032887;28;20190;-72
2021/08/01 06:40:34;;;;;;;4.47;4.00;;;16.00;99.90;;;;;;5031666;28;20198;-74
2021/08/01 06:42:59;;;;;;;4.83;4.23;;;16.10;99.90;;;;;;5033743;28;20197;-72
2021/08/01 06:45:25;;;;;;;4.60;4.20;;;16.10;99.90;;;;;;5035157;28;20189;-73
2021/08/01 06:47:51;;;;;;;4.43;4.00;;;16.10;99.90;;;;;;5032769;28;20681;-72
2021/08/01 06:50:19;;;;;;;8.03;4.33;;;16.00;99.90;;;;;;5033650;28;20246;-73
2021/08/01 06:52:46;;;;;;;4.67;3.80;;;16.00;99.90;;;;;;5032285;28;20738;-74
2021/08/01 06:55:12;;;;;;;4.73;3.70;;;15.90;99.90;;;;;;5034958;28;20546;-73
2021/08/01 06:57:38;;;;;;;4.37;3.97;;;16.00;99.90;;;;;;5033907;28;20193;-72
2021/08/01 07:00:05;;;;;;;4.37;3.97;;;16.00;99.90;;;;;;5032629;28;20675;-73
2021/08/01 07:02:30;;;;;;;4.47;4.17;;;16.00;99.90;;;;;;5033561;28;20233;-73
2021/08/01 07:04:57;;;;;;;4.10;3.77;;;16.00;99.90;;;;;;5033532;28;20663;-71
2021/08/01 07:07:23;;;;;;;4.30;3.90;;;15.90;99.90;;;;;;5033669;28;20174;-74
2021/08/01 07:09:48;;;;;;;4.63;4.00;;;15.90;99.90;;;;;;5029587;28;20185;-72
2021/08/01 07:12:16;;;;;;;6.93;3.67;;;15.90;99.90;;;;;;5033362;28;20217;-72
2021/08/01 07:14:42;;;;;;;4.83;4.43;;;16.00;99.90;;;;;;5040112;23;20675;-74
2021/08/01 07:17:08;;;;;;;3.67;3.33;;;16.00;99.90;;;;;;5025079;28;20184;-74
2021/08/01 07:19:34;;;;;;;4.70;4.30;;;16.00;99.90;;;;;;5015376;28;20182;-74
2021/08/01 07:21:59;;;;;;;4.83;4.27;;;16.00;99.90;;;;;;5019915;28;20190;-74
2021/08/01 07:24:25;;;;;;;5.53;4.07;;;16.00;99.90;;;;;;5017354;28;20206;-74
2021/08/01 07:26:52;;;;;;;4.93;4.53;;;16.10;99.90;;;;;;5016601;28;20646;-74
2021/08/01 07:29:19;;;;;;;4.73;4.27;;;16.20;99.90;;;;;;5034267;28;20194;-74
2021/08/01 07:31:45;;;;;;;4.07;3.77;;;16.20;99.90;;;;;;5030466;28;20179;-74
2021/08/01 07:34:10;;;;;;;5.20;4.13;;;16.30;99.90;;;;;;5021187;28;20207;-73
2021/08/01 07:36:36;;;;;;;4.57;3.77;;;16.30;99.90;;;;;;5031342;28;20177;-74
2021/08/01 07:39:02;;;;;;;4.37;3.97;;;16.30;99.90;;;;;;5034128;28;20647;-74
2021/08/01 07:41:27;;;;;;;4.60;4.20;;;16.30;99.90;;;;;;5034013;28;20196;-74
2021/08/01 07:43:53;;;;;;;3.90;3.50;;;16.20;99.90;;;;;;5033290;28;20205;-74
2021/08/01 07:46:19;;;;;;;5.00;4.60;;;16.10;99.90;;;;;;5034006;28;20175;-74
2021/08/01 07:48:45;;;;;;;4.90;4.50;;;16.10;99.90;;;;;;5033909;28;20643;-74
2021/08/01 07:51:11;;;;;;;4.97;4.43;;;16.10;99.90;;;;;;5033586;28;20183;-74
2021/08/01 07:53:37;;;;;;;5.67;4.57;;;16.10;99.90;;;;;;5015634;28;20198;-74
2021/08/01 07:56:03;;;;;;;4.57;4.17;;;16.00;99.90;;;;;;5015802;28;20216;-74
2021/08/01 07:58:30;;;;;;;5.00;4.50;;;16.10;99.90;;;;;;5032346;28;20237;-74
2021/08/01 08:00:56;;;;;;;4.70;4.23;;;15.90;99.90;;;;;;5020281;28;20191;-74
2021/08/01 08:03:21;;;;;;;4.00;3.63;;;15.70;99.90;;;;;;5008811;28;20209;-74
2021/08/01 08:05:47;;;;;;;4.90;4.40;;;15.70;99.90;;;;;;5032137;28;20203;-74
2021/08/01 08:08:12;;;;;;;4.50;4.10;;;15.50;99.90;;;;;;5027926;28;20554;-74
2021/08/01 08:10:38;;;;;;;5.53;4.00;;;15.70;99.90;;;;;;5031763;28;20186;-72
2021/08/01 08:13:04;;;;;;;4.80;4.20;;;15.80;99.90;;;;;;5032287;28;20235;-71
2021/08/01 08:15:33;;;;;;;4.83;4.23;;;15.90;99.90;;;;;;4995164;28;20709;-72
2021/08/01 08:17:59;;;;;;;4.40;4.07;;;16.00;99.90;;;;;;4994728;28;20177;-71
2021/08/01 08:20:24;;;;;;;4.60;3.93;;;16.00;99.90;;;;;;5012442;28;20196;-71
2021/08/01 08:22:51;;;;;;;5.07;4.57;;;16.00;99.90;;;;;;5011426;28;20232;-74
2021/08/01 08:25:16;;;;;;;5.83;4.63;;;16.00;99.90;;;;;;4994363;28;20679;-74
2021/08/01 08:27:42;;;;;;;4.87;4.47;;;16.00;99.90;;;;;;5011961;28;20184;-73
2021/08/01 08:30:09;;;;;;;5.77;5.20;;;16.00;99.90;;;;;;5011870;28;20173;-74
2021/08/01 08:32:35;;;;;;;4.90;4.50;;;16.10;99.90;;;;;;4994634;28;20267;-74
2021/08/01 08:35:02;;;;;;;5.67;5.07;;;16.10;99.90;;;;;;5012641;28;20282;-74
2021/08/01 08:37:28;;;;;;;5.07;4.57;;;16.10;99.90;;;;;;5012624;28;20555;-74
2021/08/01 08:39:53;;;;;;;18.30;11.13;;;16.10;99.90;;;;;;4994000;28;20188;-74
2021/08/01 08:42:19;;;;;;;6.00;5.40;;;15.90;99.90;;;;;;4993380;28;20184;-74
2021/08/01 08:44:45;;;;;;;6.87;4.30;;;15.70;99.90;;;;;;5011127;28;20259;-74
2021/08/01 08:47:17;;;;;;;5.77;4.07;;;15.80;99.90;;;;;;5011559;28;20180;-74
2021/08/01 08:49:51;;;;;;;4.47;4.07;;;15.80;99.90;;;;;;4994067;28;20173;-74
2021/08/01 08:52:17;;;;;;;9.70;4.87;;;15.80;99.90;;;;;;5011705;28;20185;-74
2021/08/01 08:54:48;;;;;;;5.23;4.07;;;15.70;99.90;;;;;;4999264;28;20283;-71
2021/08/01 08:57:30;;;;;;;4.90;4.00;;;15.70;99.90;;;;;;4993364;28;20620;-75
2021/08/01 09:00:07;;;;;;;4.50;4.10;;;15.60;99.90;;;;;;5011667;28;20175;-74
2021/08/01 09:02:36;;;;;;;4.13;3.80;;;15.50;99.90;;;;;;5011547;28;20190;-74
2021/08/01 09:05:04;;;;;;;4.83;4.00;;;15.50;99.90;;;;;;5011492;28;20205;-74
2021/08/01 09:07:30;;;;;;;5.77;4.20;;;15.60;99.90;;;;;;5011436;28;20725;-73
2021/08/01 09:09:56;;;;;;;4.33;3.90;;;15.70;99.90;;;;;;5011865;28;20175;-73
2021/08/01 09:12:22;;;;;;;4.00;3.70;;;15.90;99.90;;;;;;4993749;28;20572;-74
2021/08/01 09:14:48;;;;;;;4.03;3.63;;;15.90;99.90;;;;;;5015876;28;20313;-73
2021/08/01 09:17:34;;;;;;;3.90;3.60;;;16.00;99.90;;;;;;5013274;28;20269;-72
2021/08/01 09:20:12;;;;;;;5.00;4.27;;;16.00;99.90;;;;;;5009939;28;20210;-71
2021/08/01 09:22:38;;;;;;;4.53;4.13;;;16.00;99.90;;;;;;5009413;28;20201;-73
2021/08/01 09:25:20;;;;;;;3.50;3.20;;;16.00;99.90;;;;;;5014423;28;20190;-73
2021/08/01 09:27:46;;;;;;;3.80;3.50;;;15.90;99.90;;;;;;5013772;28;20605;-71
2021/08/01 09:30:12;;;;;;;4.00;3.70;;;16.00;99.90;;;;;;5000971;28;20233;-71
2021/08/01 09:32:49;;;;;;;3.80;3.50;;;16.10;99.90;;;;;;5024332;28;20180;-74
2021/08/01 09:35:21;;;;;;;3.70;3.40;;;16.20;99.90;;;;;;5013090;28;20217;-74
2021/08/01 09:37:58;;;;;;;3.47;3.17;;;16.30;99.90;;;;;;5031075;28;20188;-72
2021/08/01 09:40:29;;;;;;;4.10;3.07;;;16.30;99.90;;;;;;5028590;28;20189;-74
2021/08/01 09:43:04;;;;;;;3.10;2.90;;;16.30;99.90;;;;;;5032326;28;20665;-74
2021/08/01 09:45:29;;;;;;;3.90;3.30;;;16.20;99.90;;;;;;5032310;28;20200;-73
2021/08/01 09:48:16;;;;;;;3.50;3.30;;;16.10;99.90;;;;;;5032801;28;20177;-74
2021/08/01 09:51:07;;;;;;;4.10;3.80;;;16.00;99.90;;;;;;5032262;28;20260;-73
2021/08/01 09:53:33;;;;;;;4.23;3.87;;;16.00;99.90;;;;;;5022603;28;20725;-74
2021/08/01 09:56:19;;;;;;;4.40;4.10;;;16.10;99.90;;;;;;5031495;28;20187;-74
2021/08/01 09:58:47;;;;;;;4.20;3.80;;;16.30;99.90;;;;;;5030715;28;20186;-73
2021/08/01 10:01:12;;;;;;;3.97;3.67;;;16.40;99.90;;;;;;5030722;28;20654;-73
2021/08/01 10:03:39;;;;;;;4.03;3.72;;;16.40;99.90;;;;;;5030001;28;20486;-73
2021/08/01 10:06:19;;;;;;;4.30;4.00;;;16.50;99.90;;;;;;5030596;28;20205;-73
2021/08/01 10:08:49;;;;;;;3.20;2.90;;;16.70;99.90;;;;;;5034448;28;20171;-73
2021/08/01 10:11:23;;;;;;;3.40;3.10;;;16.70;99.90;;;;;;5032318;28;20245;-74
2021/08/01 10:13:51;;;;;;;3.17;2.97;;;16.70;99.90;;;;;;5025757;28;20252;-74
2021/08/01 10:16:17;;;;;;;2.97;2.77;;;16.60;99.90;;;;;;5020932;28;20186;-73
2021/08/01 10:18:44;;;;;;;3.73;3.40;;;16.70;99.90;;;;;;5017685;28;20181;-74
2021/08/01 10:21:13;;;;;;;3.60;3.40;;;16.80;99.90;;;;;;5035790;28;20541;-74
2021/08/01 10:23:46;;;;;;;7.60;3.27;;;16.90;99.90;;;;;;5035396;28;20213;-74
2021/08/01 10:26:14;;;;;;;3.17;2.97;;;16.80;99.90;;;;;;5035570;28;20174;-73
2021/08/01 10:28:47;;;;;;;3.10;2.80;;;17.00;99.90;;;;;;5035450;28;20264;-74
2021/08/01 10:31:15;;;;;;;3.37;3.07;;;17.00;99.90;;;;;;5035387;28;20205;-74
2021/08/01 10:33:49;;;;;;;3.77;3.47;;;16.90;99.90;;;;;;5017974;28;20194;-74
2021/08/01 10:36:23;;;;;;;4.33;3.30;;;16.90;99.90;;;;;;5035417;28;20174;-74
2021/08/01 10:38:51;;;;;;;3.97;3.67;;;17.00;99.90;;;;;;5037671;28;20256;-73
2021/08/01 10:41:19;;;;;;;2.50;2.30;;;17.00;99.90;;;;;;5020749;28;20244;-74
2021/08/01 10:43:47;;;;;;;3.17;2.80;;;16.90;99.90;;;;;;5022563;28;20300;-73
2021/08/01 10:46:17;;;;;;;3.27;2.63;;;16.90;99.90;;;;;;5017979;28;20241;-73
2021/08/01 10:48:43;;;;;;;2.70;2.50;;;16.70;99.90;;;;;;5037175;28;20540;-74
2021/08/01 10:51:09;;;;;;;2.90;2.57;;;16.60;99.90;;;;;;5038898;28;20181;-74
2021/08/01 10:53:35;;;;;;;3.77;2.60;;;16.60;99.90;;;;;;5038680;28;20252;-74
2021/08/01 10:56:06;;;;;;;2.40;2.20;;;16.80;99.90;;;;;;5037578;28;20260;-74
2021/08/01 10:58:38;;;;;;;3.33;2.30;;;16.90;99.90;;;;;;5037737;28;20182;-74
2021/08/01 11:01:05;;;;;;;2.70;2.27;;;16.90;99.90;;;;;;5038856;28;20178;-74
2021/08/01 11:03:33;;;;;;;2.53;2.33;;;16.80;99.90;;;;;;5020277;28;20219;-74
2021/08/01 11:06:00;;;;;;;3.20;2.90;;;16.50;99.90;;;;;;5027877;28;20169;-74
2021/08/01 11:08:26;;;;;;;2.90;2.50;;;16.50;99.90;;;;;;5037462;28;20177;-74
2021/08/01 11:11:12;;;;;;;2.60;2.40;;;16.40;99.90;;;;;;5037729;28;20534;-75
2021/08/01 11:13:57;;;;;;;2.43;2.30;;;16.50;99.90;;;;;;5038783;28;20276;-74
2021/08/01 11:16:46;;;;;;;2.60;2.40;;;16.50;99.90;;;;;;5020800;28;20177;-74
2021/08/01 11:19:34;;;;;;;2.87;2.67;;;16.70;99.90;;;;;;5014228;28;20188;-74
2021/08/01 11:22:00;;;;;;;2.40;2.20;;;16.60;99.90;;;;;;5037900;28;20645;-74
2021/08/01 11:24:26;;;;;;;2.10;2.00;;;16.50;99.90;;;;;;5037423;28;20216;-75
2021/08/01 11:27:21;;;;;;;2.30;2.10;;;16.50;99.90;;;;;;5036578;28;20182;-76
2021/08/01 11:30:05;;;;;;;2.73;1.97;;;16.50;99.90;;;;;;5006245;28;20503;-75
2021/08/01 11:32:51;;;;;;;1.90;1.80;;;16.70;99.90;;;;;;5027637;28;20220;-75
2021/08/01 11:35:18;;;;;;;1.60;1.50;;;16.80;99.90;;;;;;5035513;28;20201;-75
2021/08/01 11:37:44;;;;;;;1.43;1.33;;;16.90;99.90;;;;;;5036292;28;20718;-75
2021/08/01 11:40:12;;;;;;;1.43;1.33;;;17.00;99.90;;;;;;5022913;28;20658;-74
2021/08/01 11:42:38;;;;;;;1.43;1.33;;;17.10;99.90;;;;;;5035286;28;20272;-75
2021/08/01 11:45:06;;;;;;;1.83;1.30;;;17.20;99.90;;;;;;5018136;28;20233;-75
2021/08/01 11:47:43;;;;;;;1.57;1.47;;;17.30;99.90;;;;;;5037153;28;20582;-75
2021/08/01 11:50:11;;;;;;;1.60;1.50;;;17.20;99.90;;;;;;5016736;28;20178;-75
2021/08/01 11:52:46;;;;;;;2.43;1.90;;;17.00;99.90;;;;;;5031152;28;20264;-75
2021/08/01 11:55:16;;;;;;;3.63;1.57;;;17.00;99.90;;;;;;5036364;28;20196;-75
2021/08/01 11:57:44;;;;;;;2.03;1.50;;;17.10;99.90;;;;;;5030114;28;20689;-74
2021/08/01 12:00:11;;;;;;;3.00;1.80;;;17.10;99.90;;;;;;5019112;28;20205;-75
2021/08/01 12:02:38;;;;;;;1.27;1.17;;;17.20;99.90;;;;;;5019451;28;20317;-76
2021/08/01 12:05:04;;;;;;;1.47;1.37;;;17.20;99.90;;;;;;5012923;28;20191;-76
2021/08/01 12:07:44;;;;;;;1.53;1.13;;;17.30;99.90;;;;;;5018119;28;20179;-75
2021/08/01 12:10:26;;;;;;;2.10;1.43;;;17.50;99.90;;;;;;5023179;28;20682;-75
2021/08/01 12:12:54;;;;;;;1.30;1.20;;;17.60;99.90;;;;;;5019727;28;20560;-75
2021/08/01 12:15:22;;;;;;;1.50;1.20;;;17.70;99.90;;;;;;5020385;28;20233;-75
2021/08/01 12:17:48;;;;;;;1.90;1.57;;;17.60;99.90;;;;;;5030094;28;20186;-75
2021/08/01 12:20:14;;;;;;;1.43;1.33;;;17.60;99.90;;;;;;5034394;28;20177;-75
2021/08/01 12:22:44;;;;;;;2.07;1.40;;;17.60;99.90;;;;;;5035026;28;20201;-75
2021/08/01 12:25:10;;;;;;;2.57;1.70;;;17.70;99.90;;;;;;5034837;28;20716;-76
2021/08/01 12:27:37;;;;;;;2.03;1.50;;;17.90;99.90;;;;;;5017639;28;20670;-76
2021/08/01 12:30:06;;;;;;;3.67;1.60;;;18.00;99.90;;;;;;5033465;28;20178;-74
2021/08/01 12:32:49;;;;;;;1.40;1.10;;;17.90;99.90;;;;;;5035368;28;20166;-75
2021/08/01 12:35:22;;;;;;;1.50;1.30;;;17.80;99.90;;;;;;5035593;28;20198;-75
2021/08/01 12:38:01;;;;;;;2.60;1.73;;;17.80;99.90;;;;;;5035285;28;20186;-74
2021/08/01 12:40:29;;;;;;;3.23;1.13;;;17.80;99.90;;;;;;5034179;28;20331;-74
2021/08/01 12:42:59;;;;;;;1.63;1.30;;;17.80;99.90;;;;;;5036002;28;20252;-74
2021/08/01 12:45:44;;;;;;;1.50;1.20;;;17.90;99.90;;;;;;5036053;28;20197;-74
2021/08/01 12:48:20;;;;;;;1.57;1.17;;;18.20;99.90;;;;;;5018739;28;20185;-74
2021/08/01 12:51:02;;;;;;;1.53;1.43;;;18.30;99.90;;;;;;5036007;28;20208;-75
2021/08/01 12:53:29;;;;;;;1.20;1.20;;;18.40;99.90;;;;;;5035542;28;20698;-75